createdAt,value
2024-01-17T00:01:27.485Z,-8.53
2024-01-17T00:04:29.212Z,-8.42
2024-01-17T00:07:31.094Z,-8.51
2024-01-17T00:10:32.843Z,-8.43
2024-01-17T00:13:35.595Z,-8.44
2024-01-17T00:16:37.962Z,-8.46
2024-01-17T00:19:39.993Z,-8.42
2024-01-17T00:22:41.809Z,-8.42
2024-01-17T00:25:43.462Z,-8.42
2024-01-17T00:28:45.389Z,-8.25
2024-01-17T00:31:47.076Z,-8.09
2024-01-17T00:34:48.805Z,-7.87
2024-01-17T00:37:50.541Z,-7.69
2024-01-17T00:40:52.193Z,-7.63
2024-01-17T00:43:53.893Z,-7.51
2024-01-17T00:46:55.693Z,-7.54
2024-01-17T00:49:57.412Z,-7.49
2024-01-17T00:52:59.728Z,-7.49
2024-01-17T00:56:01.631Z,-7.44
2024-01-17T00:59:04.204Z,-7.47
2024-01-17T01:02:05.916Z,-7.48
2024-01-17T01:05:08.042Z,-7.31
2024-01-17T01:08:09.801Z,-7.31
2024-01-17T01:11:11.507Z,-7.28
2024-01-17T01:14:13.253Z,-7.25
2024-01-17T01:17:15.456Z,-7.17
2024-01-17T01:20:17.104Z,-7.00
2024-01-17T01:23:18.815Z,-6.89
2024-01-17T01:26:20.607Z,-6.91
2024-01-17T01:29:22.314Z,-6.79
2024-01-17T01:32:24.080Z,-6.70
2024-01-17T01:35:25.850Z,-6.57
2024-01-17T01:38:27.546Z,-6.51
2024-01-17T01:41:29.271Z,-6.39
2024-01-17T01:44:30.960Z,-6.38
2024-01-17T01:47:33.153Z,-6.32
2024-01-17T01:50:34.887Z,-6.26
2024-01-17T01:53:38.047Z,-6.19
2024-01-17T01:56:40.950Z,-6.09
2024-01-17T01:59:43.076Z,-6.09
2024-01-17T02:02:46.173Z,-5.96
2024-01-17T02:05:48.997Z,-5.89
2024-01-17T02:08:53.833Z,-5.80
2024-01-17T02:11:56.188Z,-5.81
2024-01-17T02:14:57.957Z,-5.80
2024-01-17T02:18:00.932Z,-5.72
2024-01-17T02:21:02.808Z,-5.57
2024-01-17T02:24:17.551Z,-5.58
2024-01-17T02:27:19.279Z,-5.58
2024-01-17T02:30:21.217Z,-5.48
2024-01-17T02:33:23.436Z,-5.41
2024-01-17T02:36:25.182Z,-5.36
2024-01-17T02:39:26.899Z,-5.24
2024-01-17T02:42:28.624Z,-5.26
2024-01-17T02:45:30.466Z,-5.19
2024-01-17T02:48:32.272Z,-5.07
2024-01-17T02:51:34.114Z,-4.99
2024-01-17T02:54:35.900Z,-4.96
2024-01-17T02:57:37.618Z,-4.92
2024-01-17T03:00:43.553Z,-4.94
2024-01-17T03:03:45.522Z,-4.93
2024-01-17T03:06:50.620Z,-4.85
2024-01-17T03:09:52.396Z,-4.77
2024-01-17T03:12:54.131Z,-4.59
2024-01-17T03:15:55.859Z,-4.41
2024-01-17T03:18:57.633Z,-4.22
2024-01-17T03:21:59.452Z,-4.07
2024-01-17T03:25:01.290Z,-3.89
2024-01-17T03:28:03.107Z,-3.77
2024-01-17T03:31:05.019Z,-3.63
2024-01-17T03:34:06.957Z,-3.53
2024-01-17T03:37:09.078Z,-3.39
2024-01-17T03:40:11.319Z,-3.31
2024-01-17T03:43:13.092Z,-3.23
2024-01-17T03:46:14.881Z,-3.12
2024-01-17T03:49:16.648Z,-3.02
2024-01-17T03:52:20.479Z,-2.93
2024-01-17T03:55:22.146Z,-2.84
2024-01-17T03:58:23.868Z,-2.83
2024-01-17T04:01:26.428Z,-2.72
2024-01-17T04:04:28.391Z,-2.68
2024-01-17T04:07:30.241Z,-2.64
2024-01-17T04:10:32.368Z,-2.62
2024-01-17T04:13:34.080Z,-2.54
2024-01-17T04:16:37.205Z,-2.42
2024-01-17T04:19:39.019Z,-2.36
2024-01-17T04:22:40.696Z,-2.30
2024-01-17T04:25:42.455Z,-2.23
2024-01-17T04:28:44.207Z,-2.19
2024-01-17T04:31:46.038Z,-2.05
2024-01-17T04:34:47.714Z,-1.94
2024-01-17T04:37:49.372Z,-1.81
2024-01-17T04:40:51.037Z,-1.72
2024-01-17T04:43:53.001Z,-1.62
2024-01-17T04:46:55.113Z,-1.55
2024-01-17T04:49:57.977Z,-1.47
2024-01-17T04:53:00.085Z,-1.36
2024-01-17T04:56:03.630Z,-1.27
2024-01-17T04:59:05.369Z,-1.19
2024-01-17T05:02:07.051Z,-1.12
2024-01-17T05:05:08.894Z,-1.01
2024-01-17T05:08:11.626Z,-0.95
2024-01-17T05:11:13.418Z,-0.90
2024-01-17T05:14:15.836Z,-0.84
2024-01-17T05:17:18.003Z,-0.75
2024-01-17T05:20:19.786Z,-0.63
2024-01-17T05:23:21.593Z,-0.56
2024-01-17T05:26:23.238Z,-0.42
2024-01-17T05:29:24.932Z,-0.35
2024-01-17T05:32:26.835Z,-0.32
2024-01-17T05:35:30.177Z,-0.24
2024-01-17T05:38:32.253Z,-0.20
2024-01-17T05:41:34.023Z,-0.19
2024-01-17T05:44:35.833Z,-0.10
2024-01-17T05:47:38.886Z,-0.07
2024-01-17T05:50:40.675Z,-0.04
2024-01-17T05:53:42.509Z,0.01
2024-01-17T05:56:44.209Z,0.10
2024-01-17T05:59:49.204Z,0.13
2024-01-17T06:02:51.282Z,0.09
2024-01-17T06:05:54.103Z,0.13
2024-01-17T06:08:55.908Z,0.14
2024-01-17T06:11:57.638Z,0.19
2024-01-17T06:14:59.744Z,0.21
2024-01-17T06:18:01.747Z,0.21
2024-01-17T06:21:03.738Z,0.22
2024-01-17T06:24:06.758Z,0.20
2024-01-17T06:27:08.512Z,0.20
2024-01-17T06:30:10.851Z,0.21
2024-01-17T06:33:13.002Z,0.21
2024-01-17T06:36:14.871Z,0.23
2024-01-17T06:39:18.065Z,0.22
2024-01-17T06:42:19.799Z,0.26
2024-01-17T06:45:21.589Z,0.29
2024-01-17T06:48:23.354Z,0.26
2024-01-17T06:51:25.495Z,0.33
2024-01-17T06:54:27.187Z,0.34
2024-01-17T06:57:29.824Z,0.34
2024-01-17T07:00:34.167Z,0.39
2024-01-17T07:03:36.953Z,0.43
2024-01-17T07:06:38.617Z,0.42
2024-01-17T07:09:40.567Z,0.46
2024-01-17T07:12:42.272Z,0.38
2024-01-17T07:15:43.998Z,0.48
2024-01-17T07:18:45.833Z,0.51
2024-01-17T07:21:47.579Z,0.48
2024-01-17T07:24:49.293Z,0.50
2024-01-17T07:27:51.608Z,0.51
2024-01-17T07:30:53.290Z,0.52
2024-01-17T07:33:55.186Z,0.52
2024-01-17T07:36:57.158Z,0.57
2024-01-17T07:39:59.346Z,0.55
2024-01-17T07:43:01.605Z,0.62
2024-01-17T07:46:03.446Z,0.62
2024-01-17T07:49:05.292Z,0.63
2024-01-17T07:52:07.456Z,0.65
2024-01-17T07:55:09.453Z,0.63
2024-01-17T07:58:13.007Z,0.69
2024-01-17T08:01:15.147Z,0.63
2024-01-17T08:04:17.838Z,0.72
2024-01-17T08:07:25.823Z,0.76
2024-01-17T08:10:27.523Z,0.79
2024-01-17T08:13:29.450Z,0.82
2024-01-17T08:16:31.872Z,0.81
2024-01-17T08:19:33.654Z,0.84
2024-01-17T08:22:35.602Z,0.86
2024-01-17T08:25:37.249Z,0.86
2024-01-17T08:28:38.921Z,0.85
2024-01-17T08:31:40.610Z,0.83
2024-01-17T08:34:42.480Z,0.91
2024-01-17T08:37:44.208Z,0.86
2024-01-17T08:40:45.848Z,0.94
2024-01-17T08:43:47.490Z,0.93
2024-01-17T08:46:49.368Z,0.98
2024-01-17T08:49:52.330Z,0.98
2024-01-17T08:52:54.807Z,0.98
2024-01-17T08:55:58.243Z,0.97
2024-01-17T08:59:03.063Z,0.99
2024-01-17T09:02:04.802Z,1.03
2024-01-17T09:05:07.368Z,1.04
2024-01-17T09:08:09.154Z,1.04
2024-01-17T09:11:11.480Z,1.08
2024-01-17T09:14:13.224Z,1.09
2024-01-17T09:17:14.950Z,1.07
2024-01-17T09:20:16.722Z,1.07
2024-01-17T09:23:18.938Z,1.11
2024-01-17T09:26:20.619Z,1.06
2024-01-17T09:29:22.450Z,1.12
2024-01-17T09:32:24.317Z,1.10
2024-01-17T09:35:26.049Z,1.18
2024-01-17T09:38:27.825Z,1.16
2024-01-17T09:41:30.008Z,1.14
2024-01-17T09:44:32.029Z,1.17
2024-01-17T09:47:34.907Z,1.16
2024-01-17T09:50:36.766Z,1.12
2024-01-17T09:53:39.900Z,1.20
2024-01-17T09:56:43.541Z,1.19
2024-01-17T09:59:50.876Z,1.21
2024-01-17T10:02:55.493Z,1.18
2024-01-17T10:05:59.167Z,1.15
2024-01-17T10:09:01.218Z,1.21
2024-01-17T10:12:03.007Z,1.32
2024-01-17T10:15:08.652Z,1.34
2024-01-17T10:18:12.107Z,1.41
2024-01-17T10:21:13.951Z,1.41
2024-01-17T10:24:16.127Z,1.44
2024-01-17T10:27:18.797Z,1.44
2024-01-17T10:30:21.071Z,1.45
2024-01-17T10:33:23.012Z,1.40
2024-01-17T10:36:25.010Z,1.41
2024-01-17T10:39:27.240Z,1.43
2024-01-17T10:42:28.917Z,1.47
2024-01-17T10:45:35.093Z,1.43
2024-01-17T10:48:36.949Z,1.48
2024-01-17T10:51:42.984Z,1.49
2024-01-17T10:54:47.794Z,1.61
2024-01-17T10:57:55.809Z,1.61
2024-01-17T11:01:02.228Z,1.63
2024-01-17T11:04:15.325Z,1.70
2024-01-17T11:07:18.321Z,1.74
2024-01-17T11:10:20.933Z,1.76
2024-01-17T11:13:26.238Z,1.71
2024-01-17T11:16:29.698Z,1.80
2024-01-17T11:19:33.759Z,1.77
2024-01-17T11:22:40.371Z,1.80
2024-01-17T11:26:06.632Z,1.84
2024-01-17T11:29:26.444Z,1.87
2024-01-17T11:32:59.328Z,1.93
2024-01-17T11:36:01.253Z,2.00
2024-01-17T11:39:06.940Z,2.03
2024-01-17T11:42:08.646Z,2.02
2024-01-17T11:45:14.388Z,2.02
2024-01-17T11:48:24.296Z,2.05
2024-01-17T11:51:27.488Z,2.09
2024-01-17T11:54:29.378Z,2.14
2024-01-17T11:57:37.268Z,2.13
2024-01-17T12:00:39.579Z,2.25
2024-01-17T12:03:43.237Z,2.30
2024-01-17T12:06:52.039Z,2.33
2024-01-17T12:09:53.886Z,2.34
2024-01-17T12:12:58.212Z,2.32
2024-01-17T12:16:00.973Z,2.34
2024-01-17T12:19:02.946Z,2.32
2024-01-17T12:22:05.278Z,2.34
2024-01-17T12:25:08.930Z,2.33
2024-01-17T12:28:10.828Z,2.36
2024-01-17T12:31:12.872Z,2.32
2024-01-17T12:34:15.257Z,2.37
2024-01-17T12:37:17.656Z,2.38
2024-01-17T12:40:20.402Z,2.37
2024-01-17T12:43:23.057Z,2.42
2024-01-17T12:46:25.037Z,2.43
2024-01-17T12:49:29.166Z,2.40
2024-01-17T12:52:31.080Z,2.34
2024-01-17T12:55:32.790Z,2.42
2024-01-17T12:58:34.667Z,2.42
2024-01-17T13:01:46.080Z,2.39
2024-01-17T13:05:09.799Z,2.42
2024-01-17T13:08:17.002Z,2.42
2024-01-17T13:11:19.623Z,2.40
2024-01-17T13:14:23.312Z,2.46
2024-01-17T13:17:25.127Z,2.46
2024-01-17T13:20:29.694Z,2.45
2024-01-17T13:23:31.352Z,2.43
2024-01-17T13:29:38.558Z,2.52
2024-01-17T13:32:40.454Z,2.52
2024-01-17T13:35:45.983Z,2.48
2024-01-17T13:38:47.795Z,2.55
2024-01-17T13:41:49.660Z,2.57
2024-01-17T13:44:51.515Z,2.61
2024-01-17T13:47:54.364Z,2.65
2024-01-17T13:50:56.133Z,2.59
2024-01-17T13:53:57.921Z,2.63
2024-01-17T13:56:59.734Z,2.64
2024-01-17T14:00:01.626Z,2.65
2024-01-17T14:03:09.949Z,2.59
2024-01-17T14:06:11.788Z,2.58
2024-01-17T14:09:14.484Z,2.57
2024-01-17T14:12:16.255Z,2.48
2024-01-17T14:15:18.325Z,2.53
2024-01-17T14:18:20.303Z,2.55
2024-01-17T14:21:22.134Z,2.53
2024-01-17T14:24:24.268Z,2.53
2024-01-17T14:27:26.618Z,2.51
2024-01-17T14:30:30.741Z,2.48
2024-01-17T14:33:32.592Z,2.67
2024-01-17T14:36:35.512Z,2.71
2024-01-17T14:39:37.962Z,2.70
2024-01-17T14:42:40.111Z,2.75
2024-01-17T14:45:42.243Z,2.84
2024-01-17T14:48:44.053Z,2.88
2024-01-17T14:51:45.757Z,2.86
2024-01-17T14:54:47.421Z,2.90
2024-01-17T14:57:50.459Z,2.97
2024-01-17T15:00:52.280Z,2.92
2024-01-17T15:03:54.279Z,2.91
2024-01-17T15:06:57.486Z,2.95
2024-01-17T15:09:59.224Z,3.00
2024-01-17T15:13:00.897Z,3.06
2024-01-17T15:16:02.629Z,3.13
2024-01-17T15:19:10.564Z,3.09
2024-01-17T15:22:12.675Z,3.19
2024-01-17T15:25:14.386Z,3.20
2024-01-17T15:28:16.089Z,3.41
2024-01-17T15:31:17.724Z,3.39
2024-01-17T15:34:19.853Z,3.49
2024-01-17T15:37:21.569Z,3.52
2024-01-17T15:40:23.259Z,3.62
2024-01-17T15:43:25.877Z,3.73
2024-01-17T15:46:27.598Z,3.69
2024-01-17T15:49:29.512Z,3.85
2024-01-17T15:52:33.533Z,3.81
2024-01-17T15:55:35.240Z,3.78
2024-01-17T15:58:36.933Z,3.82
2024-01-17T16:01:38.608Z,3.79
2024-01-17T16:04:40.310Z,3.73
2024-01-17T16:07:42.076Z,3.70
2024-01-17T16:10:44.214Z,3.68
2024-01-17T16:13:45.848Z,3.65
2024-01-17T16:16:51.899Z,3.70
2024-01-17T16:19:53.601Z,3.83
2024-01-17T16:22:55.345Z,3.89
2024-01-17T16:25:56.985Z,3.89
2024-01-17T16:28:58.876Z,3.92
2024-01-17T16:32:00.549Z,4.00
2024-01-17T16:35:03.098Z,3.99
2024-01-17T16:38:04.884Z,4.06
2024-01-17T16:41:06.537Z,4.07
2024-01-17T16:44:09.314Z,4.11
2024-01-17T16:47:11.706Z,4.16
2024-01-17T16:50:13.632Z,4.21
2024-01-17T16:53:15.616Z,4.22
2024-01-17T16:56:25.808Z,4.21
2024-01-17T16:59:28.083Z,4.26
2024-01-17T17:02:32.298Z,4.27
2024-01-17T17:05:34.139Z,4.36
2024-01-17T17:08:35.848Z,4.45
2024-01-17T17:11:37.768Z,4.62
2024-01-17T17:14:39.557Z,4.83
2024-01-17T17:17:41.330Z,5.03
2024-01-17T17:20:48.690Z,5.16
2024-01-17T17:23:51.380Z,5.37
2024-01-17T17:26:55.028Z,5.58
2024-01-17T17:29:57.515Z,5.79
2024-01-17T17:33:03.041Z,5.82
2024-01-17T17:36:06.106Z,5.83
2024-01-17T17:39:07.877Z,5.96
2024-01-17T17:42:09.684Z,6.02
2024-01-17T17:45:11.607Z,6.11
2024-01-17T17:48:17.618Z,6.22
2024-01-17T17:51:19.769Z,6.39
2024-01-17T17:54:21.534Z,6.31
2024-01-17T17:57:25.588Z,6.32
2024-01-17T18:00:27.379Z,6.30
2024-01-17T18:03:29.286Z,6.22
2024-01-17T18:06:31.215Z,6.34
2024-01-17T18:09:33.108Z,6.36
2024-01-17T18:12:34.938Z,6.40
2024-01-17T18:15:37.645Z,6.49
2024-01-17T18:18:39.427Z,6.57
2024-01-17T18:21:41.137Z,6.62
2024-01-17T18:24:43.503Z,6.73
2024-01-17T18:27:45.424Z,6.89
2024-01-17T18:30:47.094Z,7.00
2024-01-17T18:33:48.938Z,7.11
2024-01-17T18:36:50.671Z,7.50
2024-01-17T18:39:52.315Z,7.83
2024-01-17T18:42:54.054Z,8.15
2024-01-17T18:45:56.590Z,8.67
2024-01-17T18:48:58.357Z,8.63
2024-01-17T18:52:01.418Z,8.64
2024-01-17T18:55:03.252Z,8.76
2024-01-17T18:58:05.788Z,8.66
2024-01-17T19:01:07.469Z,8.69
2024-01-17T19:04:11.646Z,8.59
2024-01-17T19:07:16.087Z,8.66
2024-01-17T19:10:17.846Z,8.62
2024-01-17T19:13:19.581Z,8.58
2024-01-17T19:16:22.240Z,8.51
2024-01-17T19:19:25.033Z,8.48
2024-01-17T19:22:26.971Z,8.53
2024-01-17T19:25:28.767Z,8.43
2024-01-17T19:28:30.440Z,8.44
2024-01-17T19:31:32.082Z,8.46
2024-01-17T19:34:33.910Z,8.51
2024-01-17T19:37:35.781Z,8.60
2024-01-17T19:40:39.025Z,8.63
2024-01-17T19:43:40.729Z,8.82
2024-01-17T19:46:43.107Z,8.75
2024-01-17T19:49:44.913Z,8.74
2024-01-17T19:52:46.657Z,8.69
2024-01-17T19:55:48.776Z,8.68
2024-01-17T19:58:53.232Z,8.69
2024-01-17T20:01:55.401Z,8.69
2024-01-17T20:04:57.144Z,8.65
2024-01-17T20:07:58.801Z,8.69
2024-01-17T20:11:04.677Z,8.60
2024-01-17T20:14:07.311Z,8.60
2024-01-17T20:17:08.956Z,8.50
2024-01-17T20:20:11.230Z,8.46
2024-01-17T20:23:12.883Z,8.38
2024-01-17T20:26:14.844Z,8.31
2024-01-17T20:29:16.558Z,8.39
2024-01-17T20:32:18.574Z,8.33
2024-01-17T20:35:20.207Z,8.44
2024-01-17T20:38:21.891Z,8.42
2024-01-17T20:41:23.629Z,8.38
2024-01-17T20:44:25.921Z,8.36
2024-01-17T20:47:27.686Z,8.39
2024-01-17T20:50:29.421Z,8.38
2024-01-17T20:53:32.627Z,8.39
2024-01-17T20:56:35.504Z,8.37
2024-01-17T20:59:37.193Z,8.49
2024-01-17T21:02:38.898Z,8.50
2024-01-17T21:05:42.234Z,8.50
2024-01-17T21:08:44.192Z,8.41
2024-01-17T21:11:47.051Z,8.53
2024-01-17T21:14:48.873Z,8.50
2024-01-17T21:17:50.627Z,8.59
2024-01-17T21:20:55.793Z,8.52
2024-01-17T21:23:57.661Z,8.56
2024-01-17T21:26:59.834Z,8.53
2024-01-17T21:30:01.689Z,8.49
2024-01-17T21:33:04.562Z,8.43
2024-01-17T21:36:07.579Z,8.41
2024-01-17T21:39:10.670Z,8.44
2024-01-17T21:42:12.473Z,8.48
2024-01-17T21:45:14.164Z,8.50
2024-01-17T21:48:15.885Z,8.45
2024-01-17T21:51:17.718Z,8.39
2024-01-17T21:54:19.426Z,8.44
2024-01-17T21:57:21.119Z,8.51
2024-01-17T22:00:22.807Z,8.46
2024-01-17T22:03:24.492Z,8.47
2024-01-17T22:06:28.837Z,8.37
2024-01-17T22:09:31.448Z,8.34
2024-01-17T22:12:33.189Z,8.39
2024-01-17T22:15:34.945Z,8.43
2024-01-17T22:18:36.629Z,8.35
2024-01-17T22:21:38.372Z,8.36
2024-01-17T22:24:40.152Z,8.36
2024-01-17T22:27:41.916Z,8.31
2024-01-17T22:30:43.596Z,8.30
2024-01-17T22:33:45.369Z,8.25
2024-01-17T22:36:47.161Z,8.21
2024-01-17T22:39:48.833Z,8.19
2024-01-17T22:42:50.500Z,8.21
2024-01-17T22:45:52.131Z,8.14
2024-01-17T22:48:53.864Z,8.18
2024-01-17T22:51:55.556Z,8.21
2024-01-17T22:54:57.215Z,8.26
2024-01-17T22:57:58.859Z,8.20
2024-01-17T23:01:00.516Z,8.16
2024-01-17T23:04:02.283Z,8.20
2024-01-17T23:07:04.221Z,8.19
2024-01-17T23:10:06.232Z,8.26
2024-01-17T23:13:07.852Z,8.25
2024-01-17T23:16:09.665Z,8.19
2024-01-17T23:19:11.703Z,8.19
2024-01-17T23:22:13.461Z,8.18
2024-01-17T23:25:15.201Z,8.15
2024-01-17T23:28:16.846Z,8.09
2024-01-17T23:31:20.908Z,8.00
2024-01-17T23:34:22.898Z,8.01
2024-01-17T23:37:24.596Z,8.01
2024-01-17T23:40:26.387Z,8.07
2024-01-17T23:43:28.226Z,8.10
2024-01-17T23:46:29.943Z,8.14
2024-01-17T23:49:31.794Z,8.20
2024-01-17T23:52:33.445Z,8.25
2024-01-17T23:55:35.260Z,8.18
2024-01-17T23:58:36.950Z,8.27
